createdAt,value
2023-05-05T00:01:13.628Z,25.00
2023-05-05T00:02:13.496Z,25.00
2023-05-05T00:03:15.136Z,25.00
2023-05-05T00:04:13.415Z,25.00
2023-05-05T00:05:14.099Z,25.00
2023-05-05T00:06:15.116Z,25.00
2023-05-05T00:07:14.654Z,25.00
2023-05-05T00:08:13.725Z,25.00
2023-05-05T00:09:14.588Z,25.00
2023-05-05T00:10:13.690Z,25.00
2023-05-05T00:11:13.678Z,25.00
2023-05-05T00:12:13.811Z,27.87
2023-05-05T00:13:14.686Z,25.00
2023-05-05T00:14:13.800Z,26.73
2023-05-05T00:15:13.934Z,25.82
2023-05-05T00:16:14.593Z,28.80
2023-05-05T00:17:14.689Z,26.15
2023-05-05T00:18:14.037Z,26.63
2023-05-05T00:19:16.614Z,25.00
2023-05-05T00:20:14.357Z,28.24
2023-05-05T00:21:14.258Z,28.92
2023-05-05T00:22:16.209Z,30.53
2023-05-05T00:23:14.355Z,31.01
2023-05-05T00:24:15.087Z,29.85
2023-05-05T00:25:14.449Z,27.07
2023-05-05T00:26:16.142Z,25.63
2023-05-05T00:27:14.548Z,27.69
2023-05-05T00:28:14.629Z,29.99
2023-05-05T00:29:14.617Z,29.46
2023-05-05T00:30:14.666Z,30.52
2023-05-05T00:31:15.640Z,27.63
2023-05-05T00:32:14.835Z,27.30
2023-05-05T00:33:14.834Z,25.87
2023-05-05T00:34:14.871Z,29.00
2023-05-05T00:35:15.617Z,28.62
2023-05-05T00:36:15.005Z,27.98
2023-05-05T00:37:15.057Z,32.42
2023-05-05T00:38:15.069Z,32.78
2023-05-05T00:39:15.120Z,26.35
2023-05-05T00:40:17.121Z,28.72
2023-05-05T00:41:15.282Z,30.76
2023-05-05T00:42:15.259Z,32.29
2023-05-05T00:43:18.128Z,30.94
2023-05-05T00:44:15.302Z,33.09
2023-05-05T00:45:16.112Z,34.77
2023-05-05T00:46:15.276Z,29.67
2023-05-05T00:47:15.236Z,32.80
2023-05-05T00:48:15.238Z,33.11
2023-05-05T00:49:17.193Z,31.39
2023-05-05T00:50:16.118Z,34.07
2023-05-05T00:51:16.208Z,31.55
2023-05-05T00:52:15.244Z,31.63
2023-05-05T00:53:15.166Z,32.22
2023-05-05T00:54:15.242Z,33.31
2023-05-05T00:55:15.179Z,33.59
2023-05-05T00:56:15.763Z,32.25
2023-05-05T00:57:16.125Z,32.62
2023-05-05T00:58:16.104Z,35.98
2023-05-05T00:59:15.224Z,36.20
2023-05-05T01:00:16.260Z,36.43
2023-05-05T01:01:16.183Z,38.01
2023-05-05T01:02:15.426Z,37.43
2023-05-05T01:03:16.196Z,39.51
2023-05-05T01:04:15.428Z,39.65
2023-05-05T01:05:15.471Z,39.86
2023-05-05T01:06:15.570Z,35.20
2023-05-05T01:07:15.622Z,38.92
2023-05-05T01:08:16.110Z,38.52
2023-05-05T01:09:15.633Z,42.05
2023-05-05T01:10:20.128Z,40.32
2023-05-05T01:11:18.808Z,40.51
2023-05-05T01:12:15.691Z,41.10
2023-05-05T01:13:15.606Z,41.31
2023-05-05T01:14:15.675Z,40.76
2023-05-05T01:15:15.553Z,41.47
2023-05-05T01:16:16.202Z,42.98
2023-05-05T01:17:15.573Z,43.88
2023-05-05T01:18:15.496Z,43.33
2023-05-05T01:19:15.487Z,44.36
2023-05-05T01:20:15.455Z,45.97
2023-05-05T01:21:15.466Z,44.41
2023-05-05T01:22:15.504Z,46.48
2023-05-05T01:23:16.108Z,43.90
2023-05-05T01:24:15.498Z,48.19
2023-05-05T01:25:15.498Z,49.40
2023-05-05T01:26:15.526Z,43.33
2023-05-05T01:27:15.564Z,46.79
2023-05-05T01:28:15.609Z,45.30
2023-05-05T01:29:15.649Z,46.35
2023-05-05T01:30:15.701Z,48.23
2023-05-05T01:31:15.758Z,46.16
2023-05-05T01:32:15.823Z,49.53
2023-05-05T01:33:15.811Z,47.64
2023-05-05T01:34:17.662Z,45.55
2023-05-05T01:35:15.918Z,45.62
2023-05-05T01:36:15.953Z,48.82
2023-05-05T01:37:15.960Z,48.88
2023-05-05T01:38:15.933Z,49.01
2023-05-05T01:39:15.891Z,49.87
2023-05-05T01:40:15.912Z,47.42
2023-05-05T01:41:16.636Z,50.71
2023-05-05T01:42:15.903Z,49.91
2023-05-05T01:43:15.826Z,49.60
2023-05-05T01:44:17.748Z,50.25
2023-05-05T01:45:18.736Z,49.87
2023-05-05T01:46:15.815Z,48.54
2023-05-05T01:47:15.768Z,52.36
2023-05-05T01:48:19.127Z,50.38
2023-05-05T01:49:16.660Z,50.68
2023-05-05T01:50:17.711Z,50.95
2023-05-05T01:51:16.619Z,51.97
2023-05-05T01:52:15.681Z,52.21
2023-05-05T01:53:15.684Z,52.04
2023-05-05T01:54:15.606Z,53.43
2023-05-05T01:55:16.124Z,49.98
2023-05-05T01:56:15.613Z,52.39
2023-05-05T01:57:16.153Z,53.44
2023-05-05T01:58:15.690Z,48.04
2023-05-05T01:59:16.138Z,51.27
2023-05-05T02:00:15.613Z,50.90
2023-05-05T02:01:16.669Z,50.28
2023-05-05T02:02:16.672Z,52.49
2023-05-05T02:03:15.945Z,50.34
2023-05-05T02:04:15.765Z,53.32
2023-05-05T02:05:15.791Z,50.32
2023-05-05T02:06:16.652Z,53.83
2023-05-05T02:07:15.867Z,52.84
2023-05-05T02:08:16.003Z,52.56
2023-05-05T02:09:16.648Z,55.35
2023-05-05T02:10:16.012Z,53.74
2023-05-05T02:11:16.652Z,54.46
2023-05-05T02:12:16.073Z,54.00
2023-05-05T02:13:16.315Z,54.12
2023-05-05T02:14:16.271Z,54.69
2023-05-05T02:15:21.162Z,51.34
2023-05-05T02:16:16.227Z,51.54
2023-05-05T02:17:18.160Z,51.97
2023-05-05T02:18:16.227Z,51.72
2023-05-05T02:19:16.223Z,52.87
2023-05-05T02:20:16.094Z,52.92
2023-05-05T02:21:16.135Z,53.47
2023-05-05T02:22:16.069Z,57.39
2023-05-05T02:23:16.174Z,56.04
2023-05-05T02:24:16.084Z,55.73
2023-05-05T02:25:16.644Z,55.63
2023-05-05T02:26:16.647Z,57.04
2023-05-05T02:27:15.999Z,57.91
2023-05-05T02:28:16.149Z,53.53
2023-05-05T02:29:15.917Z,58.80
2023-05-05T02:30:15.903Z,52.96
2023-05-05T02:31:15.895Z,55.67
2023-05-05T02:32:17.757Z,55.69
2023-05-05T02:33:15.812Z,56.32
2023-05-05T02:34:15.813Z,58.76
2023-05-05T02:35:16.666Z,51.25
2023-05-05T02:36:15.753Z,56.02
2023-05-05T02:37:15.722Z,49.21
2023-05-05T02:38:15.915Z,50.63
2023-05-05T02:39:17.752Z,52.65
2023-05-05T02:40:15.674Z,48.48
2023-05-05T02:41:16.732Z,46.69
2023-05-05T02:42:15.720Z,46.10
2023-05-05T02:43:15.903Z,50.07
2023-05-05T02:44:16.675Z,47.97
2023-05-05T02:45:17.851Z,45.46
2023-05-05T02:46:15.866Z,48.18
2023-05-05T02:47:16.651Z,45.63
2023-05-05T02:48:15.977Z,45.38
2023-05-05T02:49:15.978Z,41.81
2023-05-05T02:50:16.053Z,42.44
2023-05-05T02:51:16.077Z,40.88
2023-05-05T02:52:17.822Z,43.52
2023-05-05T02:53:16.128Z,39.66
2023-05-05T02:54:19.227Z,34.00
2023-05-05T02:55:16.154Z,36.59
2023-05-05T02:56:16.209Z,38.25
2023-05-05T02:57:18.749Z,37.29
2023-05-05T02:58:16.091Z,37.39
2023-05-05T02:59:16.778Z,36.84
2023-05-05T03:00:16.072Z,35.39
2023-05-05T03:01:16.754Z,37.52
2023-05-05T03:02:17.792Z,32.48
2023-05-05T03:03:16.390Z,34.45
2023-05-05T03:04:16.005Z,34.02
2023-05-05T03:05:17.937Z,29.52
2023-05-05T03:06:16.658Z,31.28
2023-05-05T03:07:16.694Z,28.18
2023-05-05T03:08:15.836Z,26.35
2023-05-05T03:09:16.652Z,26.52
2023-05-05T03:10:15.853Z,27.76
2023-05-05T03:11:15.824Z,28.06
2023-05-05T03:12:15.853Z,29.22
2023-05-05T03:13:15.940Z,26.94
2023-05-05T03:14:16.012Z,27.02
2023-05-05T03:15:16.039Z,27.92
2023-05-05T03:16:16.144Z,27.22
2023-05-05T03:17:16.035Z,25.89
2023-05-05T03:18:16.235Z,25.00
2023-05-05T03:19:16.699Z,29.55
2023-05-05T03:20:16.220Z,29.66
2023-05-05T03:21:16.188Z,25.62
2023-05-05T03:22:16.248Z,26.49
2023-05-05T03:23:16.958Z,28.94
2023-05-05T03:24:16.422Z,21.49
2023-05-05T03:25:16.315Z,28.78
2023-05-05T03:26:16.373Z,28.46
2023-05-05T03:27:21.208Z,28.55
2023-05-05T03:28:16.380Z,28.74
2023-05-05T03:29:17.178Z,28.87
2023-05-05T03:30:17.240Z,29.23
2023-05-05T03:31:17.246Z,28.84
2023-05-05T03:32:21.186Z,24.20
2023-05-05T03:33:16.208Z,28.53
2023-05-05T03:34:16.283Z,28.08
2023-05-05T03:35:16.186Z,27.25
2023-05-05T03:36:16.126Z,23.22
2023-05-05T03:37:16.723Z,22.79
2023-05-05T03:38:16.242Z,27.20
2023-05-05T03:39:16.662Z,28.02
2023-05-05T03:40:16.673Z,26.32
2023-05-05T03:41:16.056Z,27.11
2023-05-05T03:42:16.125Z,27.98
2023-05-05T03:43:16.190Z,25.77
2023-05-05T03:44:17.179Z,29.06
2023-05-05T03:45:16.223Z,31.01
2023-05-05T03:46:18.327Z,26.01
2023-05-05T03:47:18.203Z,30.84
2023-05-05T03:48:17.239Z,31.09
2023-05-05T03:49:17.174Z,30.63
2023-05-05T03:50:16.231Z,28.89
2023-05-05T03:51:16.218Z,28.51
2023-05-05T03:52:18.204Z,23.20
2023-05-05T03:53:16.251Z,29.93
2023-05-05T03:54:16.201Z,25.78
2023-05-05T03:55:16.119Z,25.12
2023-05-05T03:56:16.114Z,25.77
2023-05-05T03:57:16.076Z,25.00
2023-05-05T03:58:16.077Z,25.00
2023-05-05T03:59:18.689Z,26.05
2023-05-05T04:00:16.306Z,25.00
2023-05-05T04:01:16.349Z,25.00
2023-05-05T04:02:18.481Z,25.00
2023-05-05T04:03:16.756Z,26.52
2023-05-05T04:04:16.571Z,25.00
2023-05-05T04:05:16.511Z,25.13
2023-05-05T04:06:16.653Z,27.54
2023-05-05T04:07:16.552Z,25.00
2023-05-05T04:08:16.611Z,25.65
2023-05-05T04:09:16.638Z,25.00
2023-05-05T04:10:16.643Z,32.92
2023-05-05T04:11:16.600Z,32.98
2023-05-05T04:12:18.233Z,27.91
2023-05-05T04:13:16.848Z,27.96
2023-05-05T04:14:16.583Z,24.38
2023-05-05T04:15:16.631Z,13.02
2023-05-05T04:16:16.568Z,6.40
2023-05-05T04:17:16.489Z,2.92
2023-05-05T04:18:16.766Z,24.76
2023-05-05T04:19:16.453Z,24.22
2023-05-05T04:20:16.441Z,25.00
2023-05-05T04:21:16.429Z,24.96
2023-05-05T04:22:16.468Z,28.10
2023-05-05T04:23:16.715Z,25.00
2023-05-05T04:24:16.375Z,24.81
2023-05-05T04:25:16.367Z,25.00
2023-05-05T04:26:21.238Z,25.00
2023-05-05T04:27:17.230Z,25.12
2023-05-05T04:28:16.366Z,26.55
2023-05-05T04:29:16.398Z,29.74
2023-05-05T04:30:17.202Z,37.97
2023-05-05T04:31:16.329Z,50.07
2023-05-05T04:32:16.267Z,53.72
2023-05-05T04:33:16.242Z,63.28
2023-05-05T04:34:16.221Z,61.17
2023-05-05T04:35:16.226Z,68.78
2023-05-05T04:36:16.189Z,68.90
2023-05-05T04:37:16.256Z,75.85
2023-05-05T04:38:16.232Z,77.97
2023-05-05T04:39:16.153Z,78.64
2023-05-05T04:40:16.698Z,84.88
2023-05-05T04:41:16.157Z,88.82
2023-05-05T04:42:17.756Z,96.35
2023-05-05T04:43:16.397Z,94.84
2023-05-05T04:44:17.725Z,97.75
2023-05-05T04:45:16.197Z,103.04
2023-05-05T04:46:16.244Z,105.21
2023-05-05T04:47:16.246Z,107.79
2023-05-05T04:48:17.202Z,106.85
2023-05-05T04:49:17.199Z,112.05
2023-05-05T04:50:16.288Z,115.91
2023-05-05T04:51:16.303Z,116.41
2023-05-05T04:52:17.260Z,120.41
2023-05-05T04:53:16.309Z,123.83
2023-05-05T04:54:21.330Z,122.44
2023-05-05T04:55:16.289Z,122.51
2023-05-05T04:56:16.247Z,122.80
2023-05-05T04:57:17.201Z,122.85
2023-05-05T04:58:16.324Z,117.27
2023-05-05T04:59:16.180Z,107.54
2023-05-05T05:00:16.148Z,96.45
2023-05-05T05:01:16.726Z,83.47
2023-05-05T05:02:16.158Z,73.24
2023-05-05T05:03:16.266Z,63.92
2023-05-05T05:04:16.722Z,45.51
2023-05-05T05:05:16.094Z,41.07
2023-05-05T05:06:16.765Z,31.96
2023-05-05T05:07:16.192Z,28.72
2023-05-05T05:08:16.715Z,27.43
2023-05-05T05:09:16.112Z,28.78
2023-05-05T05:10:16.138Z,24.04
2023-05-05T05:11:16.153Z,25.00
2023-05-05T05:12:16.163Z,25.00
2023-05-05T05:13:17.338Z,30.37
2023-05-05T05:14:16.176Z,29.21
2023-05-05T05:15:16.221Z,33.13
2023-05-05T05:16:16.219Z,25.00
2023-05-05T05:17:16.149Z,28.19
2023-05-05T05:18:16.225Z,25.00
2023-05-05T05:19:16.242Z,32.95
2023-05-05T05:20:16.168Z,34.55
2023-05-05T05:21:16.237Z,35.74
2023-05-05T05:22:17.727Z,37.23
2023-05-05T05:23:16.210Z,29.29
2023-05-05T05:24:16.764Z,27.85
2023-05-05T05:25:16.708Z,26.64
2023-05-05T05:26:16.127Z,27.08
2023-05-05T05:27:16.208Z,25.00
2023-05-05T05:28:16.254Z,29.85
2023-05-05T05:29:16.217Z,33.06
2023-05-05T05:30:16.204Z,36.18
2023-05-05T05:31:16.204Z,38.32
2023-05-05T05:32:16.184Z,44.49
2023-05-05T05:33:18.421Z,43.23
2023-05-05T05:34:16.666Z,48.23
2023-05-05T05:35:16.281Z,63.73
2023-05-05T05:36:16.205Z,81.50
2023-05-05T05:37:19.902Z,99.80
2023-05-05T05:38:17.334Z,77.38
2023-05-05T05:39:16.222Z,54.78
2023-05-05T05:40:16.287Z,43.89
2023-05-05T05:41:16.221Z,45.61
2023-05-05T05:42:16.325Z,49.95
2023-05-05T05:43:17.263Z,50.87
2023-05-05T05:44:17.218Z,36.38
2023-05-05T05:45:18.315Z,20.75
2023-05-05T05:46:16.295Z,22.33
2023-05-05T05:47:17.280Z,25.41
2023-05-05T05:48:16.814Z,24.59
2023-05-05T05:49:19.244Z,25.56
2023-05-05T05:50:17.229Z,28.84
2023-05-05T05:51:16.242Z,25.00
2023-05-05T05:52:16.251Z,25.00
2023-05-05T05:53:16.291Z,25.00
2023-05-05T05:54:17.269Z,26.74
2023-05-05T05:55:16.295Z,27.85
2023-05-05T05:56:16.366Z,25.00
2023-05-05T05:57:16.254Z,26.68
2023-05-05T05:58:16.791Z,23.63
2023-05-05T05:59:16.321Z,27.24
2023-05-05T06:00:16.248Z,25.00
2023-05-05T06:01:17.385Z,25.00
2023-05-05T06:02:16.261Z,28.64
2023-05-05T06:03:16.466Z,30.37
2023-05-05T06:04:16.422Z,36.24
2023-05-05T06:05:16.233Z,35.05
2023-05-05T06:06:16.269Z,36.11
2023-05-05T06:07:16.222Z,41.17
2023-05-05T06:08:16.273Z,50.82
2023-05-05T06:09:16.194Z,68.95
2023-05-05T06:10:27.539Z,75.44
2023-05-05T06:11:17.203Z,75.67
2023-05-05T06:12:16.162Z,76.30
2023-05-05T06:13:19.596Z,76.00
2023-05-05T06:14:17.059Z,72.76
2023-05-05T06:15:16.247Z,73.65
2023-05-05T06:16:16.181Z,70.96
2023-05-05T06:17:16.145Z,70.41
2023-05-05T06:18:16.186Z,75.68
2023-05-05T06:19:16.278Z,82.14
2023-05-05T06:20:16.380Z,92.90
2023-05-05T06:21:16.163Z,108.39
2023-05-05T06:22:16.080Z,116.95
2023-05-05T06:23:16.123Z,126.00
2023-05-05T06:24:16.270Z,129.74
2023-05-05T06:25:16.089Z,138.30
2023-05-05T06:26:16.097Z,146.28
2023-05-05T06:27:16.060Z,157.50
2023-05-05T06:28:16.100Z,168.90
2023-05-05T06:29:16.165Z,181.09
2023-05-05T06:30:16.142Z,187.17
2023-05-05T06:31:16.168Z,200.28
2023-05-05T06:32:18.788Z,204.97
2023-05-05T06:33:16.512Z,210.37
2023-05-05T06:34:16.444Z,199.79
2023-05-05T06:35:17.442Z,154.28
2023-05-05T06:36:16.504Z,87.03
2023-05-05T06:37:16.726Z,31.38
2023-05-05T06:38:17.435Z,18.53
2023-05-05T06:39:16.547Z,13.01
2023-05-05T06:40:16.614Z,19.73
2023-05-05T06:41:17.678Z,33.62
2023-05-05T06:42:17.313Z,102.48
2023-05-05T06:43:16.940Z,155.33
2023-05-05T06:44:16.742Z,203.31
2023-05-05T06:45:16.755Z,246.27
2023-05-05T06:46:16.859Z,251.14
2023-05-05T06:47:16.874Z,250.58
2023-05-05T06:48:16.832Z,251.12
2023-05-05T06:49:16.992Z,251.74
2023-05-05T06:50:16.796Z,254.20
2023-05-05T06:51:16.803Z,261.03
2023-05-05T06:52:16.791Z,272.97
2023-05-05T06:53:16.857Z,285.21
2023-05-05T06:54:17.092Z,270.02
2023-05-05T06:55:16.777Z,250.00
2023-05-05T06:56:16.758Z,232.04
2023-05-05T06:57:16.798Z,193.08
2023-05-05T06:58:16.768Z,122.81
2023-05-05T06:59:16.768Z,69.86
2023-05-05T07:00:16.736Z,41.76
2023-05-05T07:01:16.792Z,3.76
2023-05-05T07:02:16.710Z,0.00
2023-05-05T07:03:16.873Z,0.00
2023-05-05T07:04:16.746Z,0.00
2023-05-05T07:05:16.741Z,27.55
2023-05-05T07:06:16.710Z,39.72
2023-05-05T07:07:16.710Z,42.07
2023-05-05T07:08:16.707Z,46.07
2023-05-05T07:09:17.558Z,56.23
2023-05-05T07:10:16.824Z,60.59
2023-05-05T07:11:16.867Z,65.09
2023-05-05T07:12:16.968Z,70.34
2023-05-05T07:13:17.127Z,67.05
2023-05-05T07:14:16.995Z,74.58
2023-05-05T07:15:27.327Z,79.65
2023-05-05T07:16:18.157Z,79.79
2023-05-05T07:17:17.011Z,80.94
2023-05-05T07:18:17.035Z,84.06
2023-05-05T07:19:17.317Z,86.13
2023-05-05T07:20:16.979Z,94.25
2023-05-05T07:21:16.984Z,96.82
2023-05-05T07:22:17.066Z,97.41
2023-05-05T07:23:16.931Z,103.37
2023-05-05T07:24:17.146Z,108.40
2023-05-05T07:25:16.967Z,105.36
2023-05-05T07:26:16.912Z,107.91
2023-05-05T07:27:16.955Z,107.70
2023-05-05T07:28:16.922Z,108.70
2023-05-05T07:29:16.892Z,107.45
2023-05-05T07:30:18.655Z,108.70
2023-05-05T07:31:16.863Z,108.43
2023-05-05T07:32:16.961Z,107.67
2023-05-05T07:33:16.844Z,106.83
2023-05-05T07:34:16.865Z,107.78
2023-05-05T07:35:18.315Z,105.90
2023-05-05T07:36:16.867Z,107.28
2023-05-05T07:37:16.839Z,107.54
2023-05-05T07:38:16.851Z,108.09
2023-05-05T07:39:17.312Z,108.88
2023-05-05T07:40:16.790Z,108.57
2023-05-05T07:41:16.908Z,107.14
2023-05-05T07:42:16.794Z,104.68
2023-05-05T07:43:16.973Z,105.40
2023-05-05T07:44:17.860Z,102.49
2023-05-05T07:45:16.827Z,94.06
2023-05-05T07:46:16.871Z,92.51
2023-05-05T07:47:16.770Z,88.51
2023-05-05T07:48:16.798Z,89.09
2023-05-05T07:49:16.782Z,84.04
2023-05-05T07:51:35.955Z,25.00
2023-05-05T07:52:45.193Z,25.00
2023-05-05T07:53:36.949Z,25.00
2023-05-05T07:54:36.030Z,25.00
2023-05-05T07:55:35.966Z,25.00
2023-05-05T07:56:36.190Z,25.00
2023-05-05T07:57:36.028Z,25.00
2023-05-05T07:58:36.058Z,25.00
2023-05-05T07:59:36.065Z,25.00
2023-05-05T08:00:36.040Z,25.00
2023-05-05T08:01:36.102Z,25.00
2023-05-05T08:02:36.131Z,25.00
2023-05-05T08:03:36.276Z,25.00
2023-05-05T08:04:36.221Z,25.00
2023-05-05T08:05:36.132Z,25.00
2023-05-05T08:06:36.144Z,25.00
2023-05-05T08:07:36.141Z,23.85
2023-05-05T08:08:36.221Z,37.00
2023-05-05T08:09:36.645Z,63.74
2023-05-05T08:10:36.352Z,62.41
2023-05-05T08:11:36.419Z,55.29
2023-05-05T08:12:36.927Z,60.79
2023-05-05T08:13:36.585Z,35.26
2023-05-05T08:14:36.687Z,33.89
2023-05-05T08:15:36.723Z,26.95
2023-05-05T08:16:36.855Z,22.97
2023-05-05T08:17:36.926Z,28.03
2023-05-05T08:18:36.943Z,25.90
2023-05-05T08:19:37.075Z,26.61
2023-05-05T08:20:37.042Z,26.87
2023-05-05T08:21:37.091Z,28.17
2023-05-05T08:22:37.373Z,27.85
2023-05-05T08:23:37.073Z,28.60
2023-05-05T08:24:37.101Z,26.52
2023-05-05T08:25:37.164Z,24.94
2023-05-05T08:26:40.217Z,39.73
2023-05-05T08:27:37.123Z,36.28
2023-05-05T08:28:37.215Z,41.50
2023-05-05T08:29:37.175Z,55.94
2023-05-05T08:30:37.147Z,56.14
2023-05-05T08:31:37.225Z,59.65
2023-05-05T08:32:37.212Z,72.56
2023-05-05T08:33:37.196Z,58.41
2023-05-05T08:34:37.194Z,69.17
2023-05-05T08:35:37.198Z,94.11
2023-05-05T08:36:37.233Z,132.87
2023-05-05T08:37:37.368Z,189.31
2023-05-05T08:38:37.278Z,184.76
2023-05-05T08:39:37.306Z,175.30
2023-05-05T08:40:37.331Z,170.28
2023-05-05T08:41:37.271Z,177.31
2023-05-05T08:42:39.187Z,186.11
2023-05-05T08:43:37.380Z,190.08
2023-05-05T08:44:37.551Z,199.92
2023-05-05T08:45:37.450Z,197.32
2023-05-05T08:46:37.500Z,205.76
2023-05-05T08:47:37.579Z,214.24
2023-05-05T08:48:37.693Z,218.02
2023-05-05T08:49:37.639Z,217.23
2023-05-05T08:50:37.626Z,221.85
2023-05-05T08:51:37.683Z,219.15
2023-05-05T08:52:37.774Z,226.33
2023-05-05T08:53:38.738Z,226.94
2023-05-05T08:54:37.725Z,227.06
2023-05-05T08:55:52.782Z,229.32
2023-05-05T08:56:37.738Z,227.33
2023-05-05T08:57:37.739Z,228.86
2023-05-05T08:58:40.715Z,234.59
2023-05-05T08:59:38.828Z,228.04
2023-05-05T09:00:37.848Z,231.45
2023-05-05T09:01:37.879Z,236.15
2023-05-05T09:02:37.924Z,242.23
2023-05-05T09:03:38.688Z,248.06
2023-05-05T09:04:37.777Z,246.03
2023-05-05T09:05:37.887Z,246.39
2023-05-05T09:06:38.736Z,247.10
2023-05-05T09:07:37.788Z,234.65
2023-05-05T09:08:37.840Z,238.30
2023-05-05T09:09:37.790Z,250.10
2023-05-05T09:10:37.799Z,247.82
2023-05-05T09:11:37.895Z,240.59
2023-05-05T09:12:37.839Z,245.36
2023-05-05T09:13:37.794Z,250.00
2023-05-05T09:14:40.704Z,245.50
2023-05-05T09:15:37.808Z,246.55
2023-05-05T09:16:38.160Z,240.75
2023-05-05T09:17:37.886Z,236.48
2023-05-05T09:18:37.842Z,232.24
2023-05-05T09:19:38.149Z,233.81
2023-05-05T09:20:37.903Z,234.01
2023-05-05T09:21:37.850Z,234.17
2023-05-05T09:22:38.663Z,234.21
2023-05-05T09:23:37.884Z,218.53
2023-05-05T09:24:37.933Z,203.43
2023-05-05T09:25:38.008Z,198.45
2023-05-05T09:26:37.965Z,191.73
2023-05-05T09:27:37.879Z,207.84
2023-05-05T09:28:38.010Z,197.32
2023-05-05T09:29:37.922Z,210.10
2023-05-05T09:30:38.018Z,221.33
2023-05-05T09:31:38.717Z,223.88
2023-05-05T09:32:37.991Z,223.71
2023-05-05T09:33:37.934Z,226.71
2023-05-05T09:34:38.123Z,216.51
2023-05-05T09:35:37.964Z,223.72
2023-05-05T09:36:37.943Z,239.92
2023-05-05T09:37:37.968Z,247.39
2023-05-05T09:38:37.951Z,247.59
2023-05-05T09:39:38.150Z,250.00
2023-05-05T09:40:38.432Z,249.83
2023-05-05T09:41:38.146Z,249.88
2023-05-05T09:42:37.994Z,239.95
2023-05-05T09:43:38.044Z,239.35
2023-05-05T09:44:38.195Z,235.18
2023-05-05T09:45:38.079Z,238.15
2023-05-05T09:46:38.119Z,236.52
2023-05-05T09:47:38.154Z,233.24
2023-05-05T09:48:38.114Z,215.34
2023-05-05T09:49:38.092Z,119.94
2023-05-05T09:50:38.098Z,119.24
2023-05-05T09:51:38.076Z,114.53
2023-05-05T09:52:38.148Z,102.00
2023-05-05T09:53:38.204Z,127.48
2023-05-05T09:54:38.131Z,71.25
2023-05-05T09:55:38.141Z,15.59
2023-05-05T09:56:38.137Z,12.88
2023-05-05T09:57:38.188Z,36.23
2023-05-05T09:58:38.204Z,32.55
2023-05-05T09:59:38.142Z,14.85
2023-05-05T10:00:38.149Z,0.00
2023-05-05T10:01:38.413Z,0.00
2023-05-05T10:02:38.293Z,0.00
2023-05-05T10:03:38.178Z,0.00
2023-05-05T10:04:38.580Z,0.00
2023-05-05T10:05:38.227Z,0.87
2023-05-05T10:06:38.258Z,0.48
2023-05-05T10:07:38.274Z,0.68
2023-05-05T10:08:38.238Z,0.75
2023-05-05T10:09:38.264Z,0.00
2023-05-05T10:10:38.231Z,0.00
2023-05-05T10:11:38.250Z,0.00
2023-05-05T10:12:39.148Z,0.00
2023-05-05T10:13:38.485Z,0.00
2023-05-05T10:14:38.654Z,0.00
2023-05-05T10:15:38.302Z,0.00
2023-05-05T10:16:38.345Z,0.00
2023-05-05T10:17:38.393Z,0.00
2023-05-05T10:18:38.398Z,0.00
2023-05-05T10:19:38.291Z,0.00
2023-05-05T10:20:38.306Z,0.00
2023-05-05T10:21:39.762Z,0.00
2023-05-05T10:22:38.525Z,24.94
2023-05-05T10:23:38.562Z,37.51
2023-05-05T10:24:38.606Z,63.56
2023-05-05T10:25:38.639Z,75.61
2023-05-05T10:26:38.562Z,101.52
2023-05-05T10:27:38.643Z,115.16
2023-05-05T10:28:39.221Z,128.48
2023-05-05T10:29:38.653Z,133.61
2023-05-05T10:30:38.737Z,131.99
2023-05-05T10:31:38.731Z,125.91
2023-05-05T10:33:38.923Z,120.43
2023-05-05T10:34:38.796Z,137.48
2023-05-05T10:35:38.695Z,150.78
2023-05-05T10:36:41.823Z,152.06
2023-05-05T10:37:38.689Z,117.43
2023-05-05T10:38:38.819Z,97.40
2023-05-05T10:39:39.186Z,73.28
2023-05-05T10:40:39.056Z,65.88
2023-05-05T10:41:38.726Z,71.26
2023-05-05T10:42:38.748Z,91.83
2023-05-05T10:43:38.722Z,99.65
2023-05-05T10:44:38.946Z,123.48
2023-05-05T10:45:38.797Z,119.97
2023-05-05T10:46:38.780Z,114.71
2023-05-05T10:47:38.754Z,134.52
2023-05-05T10:48:39.769Z,155.61
2023-05-05T10:49:38.754Z,172.25
2023-05-05T10:50:38.712Z,182.47
2023-05-05T10:51:41.004Z,182.48
2023-05-05T10:52:39.048Z,171.61
2023-05-05T10:53:39.031Z,166.27
2023-05-05T10:54:39.667Z,111.14
2023-05-05T10:55:38.894Z,60.20
2023-05-05T10:56:38.887Z,41.95
2023-05-05T10:57:39.008Z,8.92
2023-05-05T10:58:55.508Z,8.00
2023-05-05T10:59:39.966Z,12.71
2023-05-05T11:00:39.717Z,10.12
2023-05-05T11:01:39.702Z,26.69
2023-05-05T11:02:38.969Z,28.39
2023-05-05T11:03:39.038Z,54.65
2023-05-05T11:04:38.907Z,51.46
2023-05-05T11:05:38.961Z,43.83
2023-05-05T11:06:39.737Z,64.51
2023-05-05T11:07:38.945Z,84.41
2023-05-05T11:08:38.938Z,113.94
2023-05-05T11:09:39.023Z,129.08
2023-05-05T11:10:38.991Z,137.95
2023-05-05T11:11:39.717Z,152.78
2023-05-05T11:12:39.057Z,163.42
2023-05-05T11:13:39.117Z,171.41
2023-05-05T11:14:38.962Z,169.06
2023-05-05T11:15:38.892Z,174.10
2023-05-05T11:16:39.856Z,176.22
2023-05-05T11:17:38.933Z,180.63
2023-05-05T11:18:38.947Z,199.16
2023-05-05T11:19:39.054Z,201.42
2023-05-05T11:20:38.945Z,212.44
2023-05-05T11:21:38.875Z,219.52
2023-05-05T11:22:38.831Z,224.96
2023-05-05T11:23:38.872Z,223.93
2023-05-05T11:24:39.242Z,226.13
2023-05-05T11:25:38.851Z,233.48
2023-05-05T11:26:38.851Z,225.85
2023-05-05T11:27:39.674Z,229.02
2023-05-05T11:28:39.155Z,235.91
2023-05-05T11:29:40.036Z,238.94
2023-05-05T11:30:39.141Z,231.16
2023-05-05T11:31:38.871Z,219.13
2023-05-05T11:32:39.052Z,196.40
2023-05-05T11:33:39.901Z,205.75
2023-05-05T11:34:38.855Z,204.90
2023-05-05T11:35:38.789Z,206.99
2023-05-05T11:36:39.023Z,202.32
2023-05-05T11:37:38.757Z,196.83
2023-05-05T11:38:38.793Z,200.03
2023-05-05T11:39:38.865Z,199.84
2023-05-05T11:40:38.843Z,170.60
2023-05-05T11:41:38.768Z,172.40
2023-05-05T11:42:38.781Z,167.13
2023-05-05T11:43:38.739Z,115.59
2023-05-05T11:44:38.745Z,97.35
2023-05-05T11:45:38.774Z,105.26
2023-05-05T11:46:38.817Z,103.03
2023-05-05T11:47:38.755Z,105.19
2023-05-05T11:48:38.736Z,105.23
2023-05-05T11:49:38.765Z,118.45
2023-05-05T11:50:38.807Z,132.87
2023-05-05T11:51:38.814Z,154.69
2023-05-05T11:52:38.752Z,167.77
2023-05-05T11:53:38.740Z,167.81
2023-05-05T11:54:38.817Z,159.39
2023-05-05T11:55:38.800Z,163.46
2023-05-05T11:56:38.811Z,163.25
2023-05-05T11:57:38.763Z,163.62
2023-05-05T11:58:38.807Z,161.76
2023-05-05T11:59:38.743Z,159.84
2023-05-05T12:00:38.808Z,172.44
2023-05-05T12:01:38.760Z,180.06
2023-05-05T12:02:38.939Z,172.52
2023-05-05T12:03:38.875Z,150.34
2023-05-05T12:04:38.809Z,105.41
2023-05-05T12:05:38.774Z,97.97
2023-05-05T12:06:38.827Z,110.87
2023-05-05T12:07:38.805Z,127.62
2023-05-05T12:08:38.938Z,138.81
2023-05-05T12:09:38.941Z,125.09
2023-05-05T12:10:39.035Z,141.36
2023-05-05T12:11:39.130Z,160.82
2023-05-05T12:12:39.210Z,163.23
2023-05-05T12:13:39.356Z,167.50
2023-05-05T12:14:39.226Z,177.10
2023-05-05T12:15:39.309Z,188.35
2023-05-05T12:16:39.447Z,185.26
2023-05-05T12:17:39.468Z,186.76
2023-05-05T12:18:39.405Z,186.95
2023-05-05T12:19:39.442Z,188.43
2023-05-05T12:20:39.465Z,190.39
2023-05-05T12:21:39.408Z,192.56
2023-05-05T12:22:39.486Z,195.78
2023-05-05T12:23:39.392Z,202.08
2023-05-05T12:24:39.418Z,210.83
2023-05-05T12:25:39.410Z,209.66
2023-05-05T12:26:39.510Z,187.21
2023-05-05T12:27:39.396Z,140.09
2023-05-05T12:28:39.517Z,96.18
2023-05-05T12:29:39.483Z,71.45
2023-05-05T12:30:39.652Z,74.82
2023-05-05T12:31:39.677Z,93.65
2023-05-05T12:32:39.576Z,110.86
2023-05-05T12:33:39.709Z,100.03
2023-05-05T12:34:39.652Z,123.35
2023-05-05T12:35:39.790Z,134.82
2023-05-05T12:36:39.742Z,104.40
2023-05-05T12:37:39.774Z,92.56
2023-05-05T12:38:39.794Z,68.47
2023-05-05T12:39:39.798Z,45.62
2023-05-05T12:40:39.867Z,23.98
2023-05-05T12:41:39.863Z,9.67
2023-05-05T12:42:39.861Z,5.20
2023-05-05T12:43:40.768Z,11.10
2023-05-05T12:44:39.873Z,16.60
2023-05-05T12:45:39.979Z,24.57
2023-05-05T12:46:40.050Z,41.38
2023-05-05T12:47:40.092Z,56.70
2023-05-05T12:48:40.089Z,51.51